Flaxville, Montana
Current Conditions -  °F | °C
As of 12:53 PM on Friday 24 Oct 2014 (Local Time) from KOLF Reporting Station
Clear Clear  
Wind Chill: 62°   Ceiling: Unl
Heat Index: 62°   Visibility: 10mi
Dew Point: 29°   Wind: 24mph
Humidity: 29%   Direction: 290°WNW
Pressure: 29.97"   Gusts: 35mph
Location:  48.8°N, 105.17°W
Report Text: KOLF 241853Z AUTO 29021G30KT 10SM CLR 17/M02 A2997 RMK AO2 PK WND 29031/1833 SLP153 T01671017
Loading
Personal Weather Stations






























Interactive Weather Map
Tropical Storm Tracking
New forecast layout! Learn more

10-Day Weather Forecast

Advertisements
Track Severe Weather on mobile